Time;durP1;ratioP1;P1;durP2;ratioP2;P2;SDS_P1;SDS_P2;PMS_P1;PMS_P2;Temp;Humidity;BMP_temperature;BMP_pressure;BME280_temperature;BME280_humidity;BME280_pressure;Samples;Min_cycle;Max_cycle;Signal;HPM_P1;HPM_P2
2024/02/01 00:02:25;;;;;;;16.02;7.97;;;9.90;99.90;;;;;;4999377;28;20434;-89
2024/02/01 00:04:51;;;;;;;15.88;7.03;;;9.90;99.90;;;;;;5016711;28;20100;-89
2024/02/01 00:07:17;;;;;;;15.13;7.63;;;9.80;99.90;;;;;;4998758;28;20074;-89
2024/02/01 00:09:43;;;;;;;14.48;7.50;;;9.80;99.90;;;;;;5017024;28;20034;-89
2024/02/01 00:12:08;;;;;;;17.08;7.82;;;9.80;99.90;;;;;;4999668;28;20360;-88
2024/02/01 00:14:34;;;;;;;13.30;7.25;;;9.70;99.90;;;;;;5016397;28;20129;-89
2024/02/01 00:17:00;;;;;;;12.65;7.45;;;9.80;99.90;;;;;;4999651;28;20026;-88
2024/02/01 00:19:25;;;;;;;14.40;7.53;;;9.80;99.90;;;;;;4998451;28;20076;-87
2024/02/01 00:21:51;;;;;;;15.63;8.20;;;9.70;99.90;;;;;;5015527;28;20032;-87
2024/02/01 00:24:17;;;;;;;16.88;8.38;;;9.70;99.90;;;;;;4998710;28;20026;-86
2024/02/01 00:26:42;;;;;;;17.17;7.70;;;9.70;99.90;;;;;;4999182;28;20537;-87
2024/02/01 00:29:08;;;;;;;13.80;8.32;;;9.70;99.90;;;;;;4999217;28;20026;-88
2024/02/01 00:31:33;;;;;;;17.40;8.15;;;9.70;99.90;;;;;;4998804;28;20086;-88
2024/02/01 00:34:02;;;;;;;12.93;7.65;;;9.70;99.90;;;;;;5016540;28;20030;-88
2024/02/01 00:36:28;;;;;;;14.10;7.40;;;9.60;99.90;;;;;;4998558;28;20612;-87
2024/02/01 00:38:53;;;;;;;14.52;7.20;;;9.60;99.90;;;;;;4999353;28;20021;-87
2024/02/01 00:41:19;;;;;;;14.00;6.63;;;9.60;99.90;;;;;;5015732;28;20097;-87
2024/02/01 00:43:44;;;;;;;17.52;7.13;;;9.60;99.90;;;;;;4998593;28;20029;-87
2024/02/01 00:46:10;;;;;;;13.82;6.97;;;9.50;99.90;;;;;;4998979;28;20477;-88
2024/02/01 00:48:36;;;;;;;12.85;6.55;;;9.50;99.90;;;;;;4998438;28;20382;-88
2024/02/01 00:51:02;;;;;;;11.82;6.10;;;9.50;99.90;;;;;;4998807;28;20060;-88
2024/02/01 00:53:28;;;;;;;13.32;6.28;;;9.50;99.90;;;;;;4998352;28;20057;-88
2024/02/01 00:55:53;;;;;;;9.65;5.38;;;9.50;99.90;;;;;;5016196;28;20473;-88
2024/02/01 00:58:19;;;;;;;10.65;4.90;;;9.50;99.90;;;;;;4998235;28;20030;-88
2024/02/01 01:00:46;;;;;;;10.15;4.70;;;9.50;99.90;;;;;;4998608;28;20108;-87
2024/02/01 01:03:11;;;;;;;10.55;4.07;;;9.40;99.90;;;;;;4997918;28;20124;-86
2024/02/01 01:05:37;;;;;;;8.13;3.45;;;9.50;99.90;;;;;;4997855;28;20104;-86
2024/02/01 01:08:03;;;;;;;6.28;3.60;;;9.40;99.90;;;;;;5015717;28;20040;-86
2024/02/01 01:10:28;;;;;;;6.97;3.22;;;9.40;99.90;;;;;;4997844;28;20030;-87
2024/02/01 01:12:54;;;;;;;6.03;3.08;;;9.50;99.90;;;;;;4998328;28;20467;-86
2024/02/01 01:15:20;;;;;;;6.03;3.15;;;9.50;99.90;;;;;;4997783;28;20029;-87
2024/02/01 01:17:45;;;;;;;8.13;3.33;;;9.50;99.90;;;;;;4998480;28;20028;-87
2024/02/01 01:20:11;;;;;;;8.27;3.05;;;9.50;99.90;;;;;;5015582;28;20026;-86
2024/02/01 01:22:37;;;;;;;5.55;2.72;;;9.50;99.90;;;;;;4997666;28;20068;-87
2024/02/01 01:25:02;;;;;;;5.38;2.75;;;9.50;99.90;;;;;;4998146;28;20033;-87
2024/02/01 01:27:28;;;;;;;6.10;2.75;;;9.50;99.90;;;;;;5014053;28;20122;-87
2024/02/01 01:29:53;;;;;;;10.68;3.50;;;9.50;99.90;;;;;;4998074;28;20060;-86
2024/02/01 01:32:19;;;;;;;5.70;2.67;;;9.50;99.90;;;;;;4997568;28;20030;-86
2024/02/01 01:34:45;;;;;;;7.05;2.90;;;9.50;99.90;;;;;;4991743;28;20030;-87
2024/02/01 01:37:10;;;;;;;5.15;2.47;;;9.50;99.90;;;;;;4994728;28;20494;-86
2024/02/01 01:39:36;;;;;;;5.05;2.78;;;9.50;99.90;;;;;;4986744;28;20117;-88
2024/02/01 01:42:02;;;;;;;6.13;2.67;;;9.50;99.90;;;;;;5010908;28;20212;-89
2024/02/01 01:44:27;;;;;;;4.18;2.50;;;9.50;99.90;;;;;;5010315;28;20042;-90
2024/02/01 01:46:53;;;;;;;5.15;2.30;;;9.50;99.90;;;;;;4994370;28;20022;-89
2024/02/01 01:49:20;;;;;;;5.18;3.00;;;9.50;99.90;;;;;;5010462;28;20120;-90
2024/02/01 01:51:48;;;;;;;5.13;2.72;;;9.50;99.90;;;;;;4994396;28;20030;-90
2024/02/01 01:54:15;;;;;;;4.35;2.40;;;9.60;99.90;;;;;;4994187;28;20483;-89
2024/02/01 01:56:42;;;;;;;8.05;2.50;;;9.60;99.90;;;;;;4993873;28;20022;-90
2024/02/01 01:59:10;;;;;;;5.40;2.42;;;9.60;99.90;;;;;;4995490;28;20027;-90
2024/02/01 02:01:38;;;;;;;4.53;2.20;;;9.60;99.90;;;;;;4993727;28;20023;-89
2024/02/01 02:04:06;;;;;;;4.03;2.17;;;9.50;99.90;;;;;;4993734;28;20108;-89
2024/02/01 02:06:33;;;;;;;3.67;1.92;;;9.60;99.90;;;;;;4994322;28;20036;-85
2024/02/01 02:08:59;;;;;;;5.50;2.17;;;9.60;99.90;;;;;;4995095;28;20371;-86
2024/02/01 02:11:26;;;;;;;5.32;2.35;;;9.60;99.90;;;;;;4992449;28;20050;-89
2024/02/01 02:13:52;;;;;;;5.38;2.15;;;9.60;99.90;;;;;;4993253;28;20041;-88
2024/02/01 02:16:18;;;;;;;5.18;2.53;;;9.60;99.90;;;;;;5010116;28;20026;-86
2024/02/01 02:18:44;;;;;;;3.50;2.20;;;9.60;99.90;;;;;;5010307;28;20030;-87
2024/02/01 02:21:14;;;;;;;5.47;2.28;;;9.60;99.90;;;;;;4994076;28;20053;-87
2024/02/01 02:23:40;;;;;;;5.20;2.38;;;9.50;99.90;;;;;;4994304;28;20035;-87
2024/02/01 02:26:08;;;;;;;4.40;2.13;;;9.50;99.90;;;;;;4993838;28;20037;-88
2024/02/01 02:28:38;;;;;;;3.55;2.08;;;9.50;99.90;;;;;;4993179;28;20033;-87
2024/02/01 02:31:05;;;;;;;3.05;1.92;;;9.50;99.90;;;;;;4994752;28;20029;-87
2024/02/01 02:33:31;;;;;;;4.13;2.08;;;9.60;99.90;;;;;;4993187;28;20037;-87
2024/02/01 02:35:56;;;;;;;4.93;2.10;;;9.60;99.90;;;;;;4994601;28;20043;-88
2024/02/01 02:38:25;;;;;;;4.88;2.00;;;9.60;99.90;;;;;;5009529;28;20458;-86
2024/02/01 02:40:50;;;;;;;5.93;2.33;;;9.50;99.90;;;;;;5010121;28;20431;-86
2024/02/01 02:43:16;;;;;;;5.43;2.20;;;9.50;99.90;;;;;;5009823;28;20113;-87
2024/02/01 02:45:42;;;;;;;4.97;2.15;;;9.50;99.90;;;;;;5009673;28;20129;-86
2024/02/01 02:48:09;;;;;;;4.38;1.80;;;9.60;99.90;;;;;;4993645;28;20033;-86
2024/02/01 02:50:36;;;;;;;5.78;2.42;;;9.60;99.90;;;;;;5009334;28;20034;-86
2024/02/01 02:53:02;;;;;;;3.33;2.00;;;9.50;99.90;;;;;;4993360;28;20037;-87
2024/02/01 02:55:27;;;;;;;4.10;2.08;;;9.60;99.90;;;;;;4993817;28;20050;-89
2024/02/01 02:57:53;;;;;;;7.13;2.42;;;9.50;99.90;;;;;;5009762;28;20031;-90
2024/02/01 03:00:19;;;;;;;5.00;2.08;;;9.50;99.90;;;;;;5009950;28;20027;-89
2024/02/01 03:02:48;;;;;;;3.92;2.28;;;9.50;99.90;;;;;;4992495;28;20168;-89
2024/02/01 03:05:17;;;;;;;6.25;2.03;;;9.50;99.90;;;;;;5009437;28;20087;-89
2024/02/01 03:07:44;;;;;;;4.38;2.30;;;9.50;99.90;;;;;;4992983;28;20069;-89
2024/02/01 03:10:10;;;;;;;3.35;1.88;;;9.40;99.90;;;;;;4993320;28;20112;-89
2024/02/01 03:12:35;;;;;;;4.07;2.00;;;9.40;99.90;;;;;;4993915;28;20042;-88
2024/02/01 03:15:01;;;;;;;4.05;2.30;;;9.40;99.90;;;;;;4993291;28;20022;-88
2024/02/01 03:17:26;;;;;;;5.00;1.85;;;9.40;99.90;;;;;;5009184;28;20034;-88
2024/02/01 03:19:53;;;;;;;3.47;1.80;;;9.40;99.90;;;;;;5009771;28;20039;-88
2024/02/01 03:22:19;;;;;;;4.80;2.25;;;9.40;99.90;;;;;;5009583;28;20026;-88
2024/02/01 03:24:45;;;;;;;4.50;1.88;;;9.40;99.90;;;;;;4993754;28;20018;-88
2024/02/01 03:27:12;;;;;;;3.97;1.88;;;9.40;99.90;;;;;;4998308;28;20026;-89
2024/02/01 03:29:37;;;;;;;4.78;1.95;;;9.40;99.90;;;;;;4996768;28;20034;-87
2024/02/01 03:32:06;;;;;;;4.82;1.67;;;9.40;99.90;;;;;;5013577;28;20122;-87
2024/02/01 03:34:32;;;;;;;3.35;1.90;;;9.40;99.90;;;;;;4996523;28;20030;-87
2024/02/01 03:37:01;;;;;;;3.00;1.83;;;9.40;99.90;;;;;;4991846;28;20037;-88
2024/02/01 03:39:27;;;;;;;3.95;1.58;;;9.40;99.90;;;;;;4997477;28;20018;-87
2024/02/01 03:41:54;;;;;;;3.75;1.80;;;9.40;99.90;;;;;;5013385;28;20037;-87
2024/02/01 03:44:23;;;;;;;4.00;2.03;;;9.40;99.90;;;;;;4996798;28;20039;-86
2024/02/01 03:46:51;;;;;;;4.03;1.90;;;9.40;99.90;;;;;;4996520;28;20023;-87
2024/02/01 03:49:17;;;;;;;3.60;2.00;;;9.40;99.90;;;;;;4996608;28;20077;-90
2024/02/01 03:51:43;;;;;;;3.65;1.52;;;9.40;99.90;;;;;;4997372;28;20045;-90
2024/02/01 03:54:09;;;;;;;2.92;1.55;;;9.40;99.90;;;;;;4996614;28;20034;-89
2024/02/01 03:56:41;;;;;;;3.17;1.30;;;9.40;99.90;;;;;;4997120;28;20143;-90
2024/02/01 03:59:11;;;;;;;;;;;9.40;99.90;;;;;;4997868;28;20060;-90
2024/02/01 04:01:40;;;;;;;4.57;1.70;;;9.40;99.90;;;;;;4995998;28;19906;-89
2024/02/01 04:04:06;;;;;;;2.55;1.40;;;9.40;99.90;;;;;;4996733;28;20132;-90
2024/02/01 04:06:34;;;;;;;3.65;1.48;;;9.40;99.90;;;;;;5012419;28;20061;-90
2024/02/01 04:09:00;;;;;;;3.88;1.40;;;9.40;99.90;;;;;;4997279;28;20026;-90
2024/02/01 04:11:29;;;;;;;1.67;1.08;;;9.40;99.90;;;;;;4996742;28;20037;-89
2024/02/01 04:13:56;;;;;;;4.35;1.25;;;9.30;99.90;;;;;;5012539;28;20034;-89
2024/02/01 04:16:21;;;;;;;3.25;1.27;;;9.40;99.90;;;;;;4995116;28;20031;-89
2024/02/01 04:18:47;;;;;;;3.50;1.10;;;9.40;99.90;;;;;;5012086;28;20026;-89
2024/02/01 04:21:12;;;;;;;2.38;0.90;;;9.40;99.90;;;;;;4997130;28;20147;-89
2024/02/01 04:23:39;;;;;;;3.05;1.00;;;9.40;99.90;;;;;;4996513;28;20026;-90
2024/02/01 04:26:05;;;;;;;5.25;1.33;;;9.40;99.90;;;;;;5012375;28;20072;-90
2024/02/01 04:28:33;;;;;;;3.30;1.00;;;9.40;99.90;;;;;;5011762;28;20065;-90
2024/02/01 04:31:01;;;;;;;2.00;1.00;;;9.40;99.90;;;;;;5011866;28;20122;-89
2024/02/01 04:33:27;;;;;;;4.47;1.15;;;9.40;99.90;;;;;;4995430;28;20034;-88
2024/02/01 04:35:53;;;;;;;3.58;0.93;;;9.40;99.90;;;;;;4995498;28;20040;-90
2024/02/01 04:38:19;;;;;;;2.22;1.00;;;9.40;99.90;;;;;;5012069;28;20117;-90
2024/02/01 04:40:44;;;;;;;3.03;1.10;;;9.40;99.90;;;;;;5011905;28;20073;-89
2024/02/01 04:43:13;;;;;;;2.20;0.90;;;9.40;99.90;;;;;;5011827;28;20022;-89
2024/02/01 04:45:40;;;;;;;1.60;1.05;;;9.40;99.90;;;;;;5011445;28;20041;-90
2024/02/01 04:48:10;;;;;;;1.70;1.13;;;9.40;99.90;;;;;;4996598;28;20019;-89
2024/02/01 04:50:37;;;;;;;2.03;0.90;;;9.40;99.90;;;;;;4996087;28;20026;-88
2024/02/01 04:53:03;;;;;;;4.25;1.02;;;9.40;99.90;;;;;;4995740;28;20033;-89
2024/02/01 04:55:28;;;;;;;5.57;1.23;;;9.40;99.90;;;;;;4994964;28;20034;-88
2024/02/01 04:57:54;;;;;;;5.25;1.20;;;9.40;99.90;;;;;;5011832;28;20033;-89
2024/02/01 05:00:21;;;;;;;1.60;1.00;;;9.40;99.90;;;;;;5011916;28;20025;-90
2024/02/01 05:02:47;;;;;;;3.55;1.60;;;9.40;99.90;;;;;;5011392;28;20030;-89
2024/02/01 05:05:14;;;;;;;2.70;1.35;;;9.40;99.90;;;;;;5011419;28;20050;-89
2024/02/01 05:07:41;;;;;;;3.17;1.42;;;9.40;99.90;;;;;;4994705;28;20033;-88
2024/02/01 05:10:07;;;;;;;3.90;1.67;;;9.40;99.90;;;;;;4995196;28;20029;-89
2024/02/01 05:12:35;;;;;;;4.53;1.80;;;9.40;99.90;;;;;;4995613;28;20061;-87
2024/02/01 05:15:06;;;;;;;2.60;1.52;;;9.40;99.90;;;;;;5011397;28;20026;-85
2024/02/01 05:17:33;;;;;;;2.63;1.30;;;9.40;99.90;;;;;;4994345;28;20026;-85
2024/02/01 05:19:59;;;;;;;4.50;1.58;;;9.40;99.90;;;;;;4994699;28;20081;-85
2024/02/01 05:22:28;;;;;;;3.58;1.60;;;9.40;99.90;;;;;;5011056;28;20426;-85
2024/02/01 05:24:54;;;;;;;3.03;1.80;;;9.30;99.90;;;;;;4994384;28;20033;-85
2024/02/01 05:27:20;;;;;;;2.30;1.33;;;9.40;99.90;;;;;;5011346;28;20030;-85
2024/02/01 05:29:49;;;;;;;6.70;1.60;;;9.30;99.90;;;;;;4994341;28;20173;-87
2024/02/01 05:32:16;;;;;;;3.65;1.30;;;9.30;99.90;;;;;;4995213;28;20026;-87
2024/02/01 05:34:41;;;;;;;4.85;1.38;;;9.30;99.90;;;;;;4994263;28;20057;-88
2024/02/01 05:37:08;;;;;;;5.47;1.40;;;9.30;99.90;;;;;;4994522;28;20432;-88
2024/02/01 05:39:34;;;;;;;4.38;1.33;;;9.20;99.90;;;;;;5010488;28;20058;-90
2024/02/01 05:42:06;;;;;;;2.47;1.55;;;9.20;99.90;;;;;;4995624;28;20023;-89
2024/02/01 05:44:32;;;;;;;6.20;1.60;;;9.20;99.90;;;;;;4995126;28;20038;-89
2024/02/01 05:46:58;;;;;;;2.63;1.65;;;9.20;99.90;;;;;;5010956;28;20027;-86
2024/02/01 05:49:28;;;;;;;3.67;1.40;;;9.10;99.90;;;;;;4993689;28;20552;-86
2024/02/01 05:51:59;;;;;;;4.05;1.50;;;9.10;99.90;;;;;;4993968;28;20080;-86
2024/02/01 05:54:24;;;;;;;1.90;1.17;;;9.10;99.90;;;;;;4994419;28;20057;-85
2024/02/01 05:56:50;;;;;;;3.05;1.83;;;9.10;99.90;;;;;;4993706;28;20390;-88
2024/02/01 05:59:17;;;;;;;3.38;1.55;;;9.10;99.90;;;;;;5010100;28;20029;-88
2024/02/01 06:01:44;;;;;;;2.20;1.42;;;9.10;99.90;;;;;;4993390;28;20113;-89
2024/02/01 06:04:10;;;;;;;3.92;1.30;;;9.00;99.90;;;;;;4991126;28;20050;-87
2024/02/01 06:06:48;;;;;;;3.47;1.17;;;9.00;99.90;;;;;;4996552;28;20163;-85
2024/02/01 06:09:15;;;;;;;4.30;1.40;;;9.00;99.90;;;;;;4993052;28;20030;-88
2024/02/01 06:11:42;;;;;;;3.45;1.67;;;9.00;99.90;;;;;;4996817;28;20168;-85
2024/02/01 06:14:08;;;;;;;2.80;1.17;;;8.90;99.90;;;;;;4997414;28;20029;-85
2024/02/01 06:16:33;;;;;;;2.35;1.20;;;8.90;99.90;;;;;;4995774;28;20399;-90
2024/02/01 06:18:59;;;;;;;3.58;1.40;;;8.90;99.90;;;;;;4990438;28;20464;-84
2024/02/01 06:21:25;;;;;;;3.58;1.30;;;8.90;99.90;;;;;;4995959;28;20026;-86
2024/02/01 06:23:51;;;;;;;3.95;2.22;;;8.90;99.90;;;;;;4990815;28;20026;-88
2024/02/01 06:26:21;;;;;;;2.17;1.23;;;8.90;99.90;;;;;;4997195;28;20026;-87
2024/02/01 06:28:47;;;;;;;4.15;1.35;;;8.90;99.90;;;;;;5014309;28;20022;-87
2024/02/01 06:31:16;;;;;;;3.33;1.25;;;8.90;99.90;;;;;;4992756;28;20039;-87
2024/02/01 06:33:42;;;;;;;5.88;1.33;;;8.90;99.90;;;;;;4992862;28;20030;-84
2024/02/01 06:36:13;;;;;;;2.22;1.45;;;8.90;99.90;;;;;;4993865;28;20045;-84
2024/02/01 06:44:21;;;;;;;3.85;1.48;;;8.90;99.90;;;;;;4993772;28;20458;-83
2024/02/01 06:47:06;;;;;;;2.53;1.75;;;8.80;99.90;;;;;;4993255;28;20034;-86
2024/02/01 06:54:50;;;;;;;3.00;1.73;;;8.70;99.90;;;;;;4993467;28;20060;-84
2024/02/01 06:57:22;;;;;;;6.78;2.65;;;8.70;99.90;;;;;;4990665;28;20081;-83
2024/02/01 07:02:47;;;;;;;4.78;2.05;;;8.70;99.90;;;;;;5003466;28;20388;-83
2024/02/01 07:05:25;;;;;;;4.88;2.22;;;8.70;99.90;;;;;;4996957;28;20502;-83
2024/02/01 07:08:02;;;;;;;3.15;1.95;;;8.70;99.90;;;;;;4996255;28;20231;-83
2024/02/01 07:10:47;;;;;;;4.78;2.40;;;8.70;99.90;;;;;;4996587;28;20026;-86
2024/02/01 07:13:24;;;;;;;6.97;1.90;;;8.70;99.90;;;;;;4999949;28;20040;-81
2024/02/01 07:15:54;;;;;;;4.32;1.95;;;8.70;99.90;;;;;;5017089;28;20037;-81
2024/02/01 07:18:30;;;;;;;4.20;2.50;;;8.70;99.90;;;;;;5000228;28;20132;-80
2024/02/01 07:20:56;;;;;;;3.63;1.90;;;8.70;99.90;;;;;;4995970;28;20212;-80
2024/02/01 07:25:48;;;;;;;4.10;2.20;;;8.70;99.90;;;;;;4997616;28;20460;-82
2024/02/01 07:58:24;;;;;;;4.45;2.03;;;8.80;99.90;;;;;;4997686;28;20041;-83
2024/02/01 08:00:56;;;;;;;4.82;2.08;;;8.70;99.90;;;;;;4995727;28;20026;-83
2024/02/01 08:03:55;;;;;;;3.40;2.20;;;8.80;99.90;;;;;;4997181;28;20039;-83
2024/02/01 08:09:11;;;;;;;3.67;2.00;;;8.80;99.90;;;;;;4997359;28;20049;-83
2024/02/01 08:11:37;;;;;;;4.90;2.05;;;8.70;99.90;;;;;;4995238;28;20037;-83
2024/02/01 08:14:06;;;;;;;7.95;2.33;;;8.80;99.90;;;;;;4996804;28;20034;-83
2024/02/01 08:16:32;;;;;;;6.35;2.28;;;8.70;99.90;;;;;;5028965;28;20117;-83
2024/02/01 08:18:59;;;;;;;5.78;1.92;;;8.70;99.90;;;;;;4990781;28;20122;-82
2024/02/01 08:21:26;;;;;;;4.30;2.08;;;8.70;99.90;;;;;;4996094;28;20030;-83
2024/02/01 08:23:54;;;;;;;6.78;2.45;;;8.70;99.90;;;;;;4996595;28;20058;-83
2024/02/01 08:26:21;;;;;;;4.68;2.78;;;8.70;99.90;;;;;;4995838;28;20383;-83
2024/02/01 08:28:47;;;;;;;4.82;2.10;;;8.70;99.90;;;;;;4995255;28;20022;-83
2024/02/01 08:31:17;;;;;;;5.78;3.10;;;8.70;99.90;;;;;;4996074;28;20034;-82
2024/02/01 08:33:44;;;;;;;5.05;2.50;;;8.80;99.90;;;;;;4995527;28;20081;-83
2024/02/01 08:36:12;;;;;;;4.75;2.60;;;8.70;99.90;;;;;;4995700;28;20034;-83
2024/02/01 08:38:38;;;;;;;4.97;2.50;;;8.80;99.90;;;;;;4995747;28;20026;-82
2024/02/01 08:41:05;;;;;;;7.78;2.60;;;8.80;99.90;;;;;;4996070;28;20105;-83
2024/02/01 08:43:30;;;;;;;4.95;2.45;;;8.80;99.90;;;;;;4995609;28;20034;-82
2024/02/01 08:45:56;;;;;;;7.43;2.85;;;8.80;99.90;;;;;;4995339;28;20033;-83
2024/02/01 08:48:24;;;;;;;3.97;2.20;;;8.90;99.90;;;;;;4995699;28;20165;-83
2024/02/01 08:50:52;;;;;;;3.05;2.13;;;8.80;99.90;;;;;;5027782;28;20514;-83
2024/02/01 08:53:22;;;;;;;4.03;2.25;;;8.90;99.90;;;;;;4996177;28;20026;-83
2024/02/01 08:55:52;;;;;;;5.57;2.45;;;8.90;99.90;;;;;;4995167;28;20034;-83
2024/02/01 08:58:18;;;;;;;4.43;2.40;;;8.90;99.90;;;;;;4995508;28;20049;-83
2024/02/01 09:00:44;;;;;;;4.25;2.45;;;8.90;99.90;;;;;;4994938;28;20056;-83
2024/02/01 09:03:17;;;;;;;7.88;2.80;;;8.90;99.90;;;;;;4995203;28;20463;-83
2024/02/01 09:05:47;;;;;;;3.08;2.08;;;8.90;99.90;;;;;;4994625;28;20069;-84
2024/02/01 09:08:24;;;;;;;10.10;3.40;;;9.00;99.90;;;;;;4995915;28;20135;-83
2024/02/01 09:10:57;;;;;;;4.13;2.58;;;9.00;99.90;;;;;;4994865;28;20135;-83
2024/02/01 09:13:25;;;;;;;8.07;3.38;;;9.00;99.90;;;;;;4995228;28;20060;-82
2024/02/01 09:15:51;;;;;;;8.07;3.72;;;9.00;99.90;;;;;;4995668;28;20026;-82
2024/02/01 09:18:18;;;;;;;6.90;3.50;;;9.00;99.90;;;;;;4995340;28;20029;-81
2024/02/01 09:20:47;;;;;;;7.15;3.75;;;9.10;99.90;;;;;;4994648;28;20053;-82
2024/02/01 09:23:13;;;;;;;7.28;3.97;;;9.10;99.90;;;;;;4994916;28;20545;-82
2024/02/01 09:25:43;;;;;;;9.90;5.00;;;9.10;99.90;;;;;;4994899;28;20030;-81
2024/02/01 09:28:13;;;;;;;9.77;3.92;;;9.10;99.90;;;;;;4994761;28;20030;-82
2024/02/01 09:30:47;;;;;;;15.30;4.95;;;9.00;99.90;;;;;;4995717;28;20031;-83
2024/02/01 09:33:20;;;;;;;12.95;5.00;;;9.10;99.90;;;;;;4994044;28;20041;-81
2024/02/01 09:35:46;;;;;;;10.70;4.97;;;9.10;99.90;;;;;;4994297;28;20030;-83
2024/02/01 09:38:12;;;;;;;8.63;4.65;;;9.10;99.90;;;;;;4994442;28;20535;-82
2024/02/01 09:40:44;;;;;;;9.80;4.40;;;9.10;99.90;;;;;;4995664;28;20057;-82
2024/02/01 09:43:17;;;;;;;10.13;4.70;;;9.10;99.90;;;;;;4994759;28;20041;-82
2024/02/01 09:45:44;;;;;;;9.82;4.35;;;9.00;99.90;;;;;;4994856;28;20486;-82
2024/02/01 09:48:15;;;;;;;10.52;4.75;;;9.10;99.90;;;;;;4994834;28;20049;-83
2024/02/01 09:50:47;;;;;;;8.18;4.47;;;9.10;99.90;;;;;;4994735;28;20033;-83
2024/02/01 09:53:12;;;;;;;8.63;4.47;;;9.10;99.90;;;;;;4993115;28;20034;-82
2024/02/01 09:55:38;;;;;;;9.55;4.10;;;9.10;99.90;;;;;;4994295;28;20753;-83
2024/02/01 09:58:04;;;;;;;7.70;4.20;;;9.10;99.90;;;;;;4993661;28;20026;-83
2024/02/01 10:00:33;;;;;;;10.98;4.10;;;9.10;99.90;;;;;;4994970;28;20023;-82
2024/02/01 10:02:59;;;;;;;9.05;3.95;;;9.20;99.90;;;;;;4997355;28;20037;-83
2024/02/01 10:05:28;;;;;;;7.00;4.00;;;9.20;99.90;;;;;;4994868;28;20402;-83
2024/02/01 10:07:57;;;;;;;8.10;3.97;;;9.20;99.90;;;;;;4995095;28;20061;-83
2024/02/01 10:10:23;;;;;;;8.27;4.10;;;9.20;99.90;;;;;;4994210;28;20050;-82
2024/02/01 10:12:52;;;;;;;7.88;3.80;;;9.30;99.90;;;;;;4978727;28;20066;-82
2024/02/01 10:15:27;;;;;;;6.75;3.55;;;9.30;99.90;;;;;;4974884;28;20113;-83
2024/02/01 10:17:53;;;;;;;7.53;3.63;;;9.30;99.90;;;;;;4974081;28;20046;-83
2024/02/01 10:20:34;;;;;;;8.32;4.32;;;9.30;99.90;;;;;;4976014;28;20033;-82
2024/02/01 10:23:04;;;;;;;8.73;3.50;;;9.30;99.90;;;;;;4975853;28;20030;-82
2024/02/01 10:25:36;;;;;;;9.38;3.65;;;9.30;99.90;;;;;;4975419;28;20153;-82
2024/02/01 10:28:07;;;;;;;5.82;3.53;;;9.40;99.90;;;;;;4974179;28;20031;-83
2024/02/01 10:30:34;;;;;;;8.13;3.60;;;9.40;99.90;;;;;;4974539;28;20085;-82
2024/02/01 10:33:01;;;;;;;9.35;3.85;;;9.50;99.90;;;;;;4974805;28;20134;-81
2024/02/01 10:35:29;;;;;;;7.53;3.95;;;9.50;99.90;;;;;;4973405;28;20034;-82
2024/02/01 10:37:55;;;;;;;7.80;4.10;;;9.60;99.90;;;;;;4973643;28;20172;-83
2024/02/01 10:40:28;;;;;;;9.15;4.40;;;9.60;99.90;;;;;;4973772;28;20443;-82
2024/02/01 10:42:59;;;;;;;6.78;4.10;;;9.50;99.90;;;;;;4973577;28;20042;-83
2024/02/01 10:45:30;;;;;;;9.23;4.37;;;9.50;99.90;;;;;;4974005;28;20026;-81
2024/02/01 10:47:58;;;;;;;10.73;4.55;;;9.50;99.90;;;;;;4974445;28;20376;-82
2024/02/01 10:50:24;;;;;;;10.45;4.60;;;9.60;99.90;;;;;;4974913;28;20043;-81
2024/02/01 10:52:50;;;;;;;9.55;4.60;;;9.60;99.90;;;;;;4974530;28;20457;-82
2024/02/01 10:55:17;;;;;;;9.73;4.40;;;9.60;99.90;;;;;;4973955;28;20095;-81
2024/02/01 10:57:44;;;;;;;9.63;4.57;;;9.60;99.90;;;;;;4973607;28;20062;-82
2024/02/01 11:00:19;;;;;;;8.25;4.53;;;9.70;99.90;;;;;;4973300;28;20030;-82
2024/02/01 11:02:50;;;;;;;9.80;4.22;;;9.70;99.90;;;;;;4973715;28;20055;-83
2024/02/01 11:05:17;;;;;;;12.73;5.40;;;9.70;99.90;;;;;;4973360;28;20109;-82
2024/02/01 11:07:42;;;;;;;8.77;4.70;;;9.70;99.90;;;;;;4974668;28;20261;-81
2024/02/01 11:10:13;;;;;;;7.43;4.35;;;9.70;99.90;;;;;;4972922;28;20381;-82
2024/02/01 11:12:39;;;;;;;5.93;3.75;;;9.70;99.90;;;;;;4974961;28;20042;-82
2024/02/01 11:15:16;;;;;;;7.60;4.30;;;9.70;99.90;;;;;;4972802;28;20026;-81
2024/02/01 11:17:42;;;;;;;7.53;4.25;;;9.70;99.90;;;;;;4973553;28;20484;-82
2024/02/01 11:20:10;;;;;;;6.03;3.58;;;9.90;99.90;;;;;;4976959;28;20037;-82
2024/02/01 11:22:40;;;;;;;5.15;3.00;;;9.90;99.90;;;;;;4994019;28;20050;-82
2024/02/01 11:25:06;;;;;;;6.40;3.38;;;10.00;99.90;;;;;;5008877;28;20701;-81
2024/02/01 11:27:36;;;;;;;5.38;3.42;;;10.00;99.90;;;;;;5009399;28;20170;-82
2024/02/01 11:30:19;;;;;;;6.22;3.42;;;10.10;99.90;;;;;;5008899;28;20117;-82
2024/02/01 11:32:49;;;;;;;5.70;3.08;;;10.10;99.90;;;;;;4993032;28;20030;-82
2024/02/01 11:35:17;;;;;;;7.07;3.72;;;10.20;99.90;;;;;;4992818;28;20031;-83
2024/02/01 11:37:43;;;;;;;6.25;3.25;;;10.30;99.90;;;;;;4993887;28;20471;-82
2024/02/01 11:40:15;;;;;;;7.38;3.40;;;10.30;99.90;;;;;;5007823;28;20026;-82
2024/02/01 11:42:45;;;;;;;5.97;3.20;;;10.30;99.90;;;;;;4992983;28;20081;-83
2024/02/01 11:45:15;;;;;;;5.97;3.53;;;10.30;99.90;;;;;;4992597;28;20117;-81
2024/02/01 11:47:42;;;;;;;6.85;3.30;;;10.40;99.90;;;;;;4997263;28;20113;-81
2024/02/01 11:50:08;;;;;;;7.38;3.50;;;10.40;99.90;;;;;;4995556;28;20029;-82
2024/02/01 11:52:46;;;;;;;6.18;3.72;;;10.40;99.90;;;;;;4996476;28;20036;-83
2024/02/01 11:55:14;;;;;;;6.93;3.42;;;10.40;99.90;;;;;;4997466;28;20379;-83
2024/02/01 11:57:47;;;;;;;5.65;3.38;;;10.30;99.90;;;;;;4997289;28;20375;-83
2024/02/01 12:00:17;;;;;;;5.50;3.03;;;10.30;99.90;;;;;;4997425;28;20022;-82
2024/02/01 12:02:45;;;;;;;4.63;2.78;;;10.20;99.90;;;;;;4997469;28;20036;-83
2024/02/01 12:05:12;;;;;;;6.38;3.08;;;10.20;99.90;;;;;;4997158;28;20139;-82
2024/02/01 12:07:41;;;;;;;4.97;3.38;;;10.20;99.90;;;;;;4995976;28;20479;-82
2024/02/01 12:10:15;;;;;;;5.50;3.15;;;10.10;99.90;;;;;;4996705;28;20026;-83
2024/02/01 12:12:47;;;;;;;6.70;3.38;;;10.10;99.90;;;;;;4995350;28;20026;-82
2024/02/01 12:15:16;;;;;;;4.43;2.78;;;10.10;99.90;;;;;;4995652;28;20027;-83
2024/02/01 12:17:45;;;;;;;4.25;2.75;;;10.10;99.90;;;;;;4995937;28;20069;-83
2024/02/01 12:20:12;;;;;;;4.43;3.28;;;10.10;99.90;;;;;;4995598;28;20053;-83
2024/02/01 12:22:38;;;;;;;5.22;3.03;;;10.10;99.90;;;;;;4996779;28;20026;-83
2024/02/01 12:25:15;;;;;;;5.97;3.30;;;10.00;99.90;;;;;;4995405;28;20035;-83
2024/02/01 12:27:45;;;;;;;7.15;3.22;;;10.10;99.90;;;;;;4995951;28;20085;-82
2024/02/01 12:30:14;;;;;;;5.47;3.00;;;10.10;99.90;;;;;;4995750;28;20489;-83
2024/02/01 12:32:46;;;;;;;6.57;3.33;;;10.10;99.90;;;;;;4995918;28;20041;-83
2024/02/01 12:35:17;;;;;;;5.20;3.10;;;10.10;99.90;;;;;;4995250;28;20030;-83
2024/02/01 12:37:43;;;;;;;5.45;3.15;;;10.10;99.90;;;;;;4995584;28;20035;-83
2024/02/01 12:40:19;;;;;;;7.63;3.72;;;10.10;99.90;;;;;;4992024;28;20019;-82
2024/02/01 12:42:48;;;;;;;8.40;3.63;;;10.00;99.90;;;;;;4975976;28;20065;-81
2024/02/01 12:45:17;;;;;;;6.55;3.95;;;10.10;99.90;;;;;;4977238;28;20031;-82
2024/02/01 12:47:47;;;;;;;6.75;4.18;;;10.10;99.90;;;;;;4976305;28;20388;-81
2024/02/01 12:50:17;;;;;;;9.07;3.90;;;10.10;99.90;;;;;;4976553;28;20038;-83
2024/02/01 12:52:43;;;;;;;6.03;3.92;;;10.10;99.90;;;;;;4976323;28;20031;-82
2024/02/01 12:55:09;;;;;;;7.85;3.75;;;10.10;99.90;;;;;;4975433;28;20030;-83
2024/02/01 12:57:36;;;;;;;7.15;3.65;;;10.10;99.90;;;;;;4975023;28;20085;-82
2024/02/01 13:00:05;;;;;;;7.30;3.42;;;10.10;99.90;;;;;;4975424;28;20023;-83
2024/02/01 13:02:31;;;;;;;6.75;3.60;;;10.10;99.90;;;;;;4975761;28;20035;-82
2024/02/01 13:04:57;;;;;;;5.20;3.50;;;10.00;99.90;;;;;;4976436;28;20511;-82
2024/02/01 13:07:23;;;;;;;5.07;3.38;;;10.10;99.90;;;;;;4975635;28;20031;-83
2024/02/01 13:09:49;;;;;;;5.03;3.10;;;10.10;99.90;;;;;;4975222;28;20027;-83
2024/02/01 13:12:24;;;;;;;5.60;3.60;;;10.10;99.90;;;;;;4976851;28;20030;-83
2024/02/01 13:15:05;;;;;;;7.10;4.07;;;10.10;99.90;;;;;;4976195;28;20468;-83
2024/02/01 13:17:34;;;;;;;5.63;3.80;;;10.20;99.90;;;;;;4976681;28;20027;-83
2024/02/01 13:20:00;;;;;;;10.68;4.78;;;10.30;99.90;;;;;;4975231;28;20031;-83
2024/02/01 13:22:27;;;;;;;9.95;5.38;;;10.30;99.90;;;;;;4975483;28;20026;-82
2024/02/01 13:24:53;;;;;;;11.45;4.75;;;10.40;99.90;;;;;;4976173;28;20038;-83
2024/02/01 13:27:19;;;;;;;10.43;4.75;;;10.30;99.90;;;;;;4975470;28;20034;-83
2024/02/01 13:29:45;;;;;;;9.27;4.72;;;10.50;99.90;;;;;;4976190;28;20077;-80
2024/02/01 13:32:12;;;;;;;7.75;4.35;;;10.70;99.90;;;;;;4976033;28;20034;-83
2024/02/01 13:34:39;;;;;;;7.70;4.30;;;11.30;99.90;;;;;;4975132;28;20045;-83
2024/02/01 13:37:09;;;;;;;8.95;4.35;;;11.50;99.90;;;;;;4976054;28;20479;-83
2024/02/01 13:39:35;;;;;;;6.53;4.20;;;12.00;99.90;;;;;;4976349;28;20459;-83
2024/02/01 13:42:04;;;;;;;8.20;4.10;;;12.20;99.90;;;;;;4975902;28;20027;-84
2024/02/01 13:44:30;;;;;;;9.23;3.85;;;12.60;99.90;;;;;;4976137;28;20035;-83
2024/02/01 13:46:57;;;;;;;6.80;3.92;;;12.60;99.90;;;;;;4974654;28;20050;-84
2024/02/01 13:49:23;;;;;;;9.10;4.30;;;12.40;99.90;;;;;;4975037;28;20380;-84